Time;durP1;ratioP1;P1;durP2;ratioP2;P2;SDS_P1;SDS_P2;PMS_P1;PMS_P2;Temp;Humidity;BMP_temperature;BMP_pressure;BME280_temperature;BME280_humidity;BME280_pressure;Samples;Min_cycle;Max_cycle;Signal;HPM_P1;HPM_P2
2021/03/26 00:01:49;;;;;;;45.63;23.10;;;13.40;57.30;;;;;;5055899;28;20044;-64
2021/03/26 00:04:18;;;;;;;45.30;22.38;;;;;;;;;;5073655;28;20067;-63
2021/03/26 00:06:47;;;;;;;44.05;22.98;;;13.10;57.10;;;;;;5073550;28;20049;-63
2021/03/26 00:09:17;;;;;;;47.80;23.05;;;13.50;57.00;;;;;;5054901;28;20057;-64
2021/03/26 00:11:46;;;;;;;44.60;23.23;;;13.40;56.70;;;;;;5073619;28;20053;-64
2021/03/26 00:14:13;;;;;;;46.60;24.48;;;13.40;56.60;;;;;;5073855;28;20051;-65
2021/03/26 00:16:40;;;;;;;50.20;25.45;;;;;;;;;;5073659;28;20528;-64
2021/03/26 00:19:07;;;;;;;43.88;22.08;;;13.10;57.70;;;;;;5072149;28;20055;-64
2021/03/26 00:21:34;;;;;;;42.95;22.65;;;;;;;;;;5072984;28;20395;-62
2021/03/26 00:24:01;;;;;;;47.88;23.85;;;;;;;;;;5073588;28;20040;-64
2021/03/26 00:26:39;;;;;;;48.97;23.15;;;;;;;;;;5073052;28;20075;-65
2021/03/26 00:29:21;;;;;;;43.40;22.05;;;13.20;58.50;;;;;;5072788;28;20487;-64
2021/03/26 00:31:49;;;;;;;48.83;23.45;;;13.00;58.20;;;;;;5073412;28;20107;-64
2021/03/26 00:34:28;;;;;;;47.13;23.58;;;12.90;58.60;;;;;;5072080;28;20135;-64
2021/03/26 00:36:56;;;;;;;44.42;23.40;;;;;;;;;;5071569;28;20080;-64
2021/03/26 00:39:23;;;;;;;51.08;23.42;;;;;;;;;;5073342;28;20040;-65
2021/03/26 00:41:50;;;;;;;47.03;24.35;;;;;;;;;;5072612;28;20048;-66
2021/03/26 00:44:17;;;;;;;42.63;22.67;;;;;;;;;;5072933;28;20052;-66
2021/03/26 00:46:45;;;;;;;45.22;23.48;;;;;;;;;;5073015;28;20045;-64
2021/03/26 00:49:13;;;;;;;47.58;23.63;;;;;;;;;;5073091;28;20526;-64
2021/03/26 00:51:40;;;;;;;48.28;23.10;;;12.60;59.50;;;;;;5071714;28;20106;-67
2021/03/26 00:54:07;;;;;;;42.85;23.92;;;12.50;59.90;;;;;;5072308;28;20060;-64
2021/03/26 00:56:35;;;;;;;47.60;24.02;;;;;;;;;;5071792;28;20079;-66
2021/03/26 00:59:04;;;;;;;49.90;23.27;;;12.60;59.60;;;;;;5071189;28;20093;-66
2021/03/26 01:01:31;;;;;;;47.90;22.38;;;;;;;;;;5072583;28;20524;-64
2021/03/26 01:03:59;;;;;;;48.17;24.13;;;;;;;;;;5071381;28;20059;-65
2021/03/26 01:06:26;;;;;;;51.22;25.33;;;;;;;;;;5067605;28;20102;-65
2021/03/26 01:08:57;;;;;;;49.47;25.20;;;;;;;;;;5055264;28;20041;-63
2021/03/26 01:11:30;;;;;;;46.92;24.05;;;12.50;59.90;;;;;;5067877;28;20049;-64
2021/03/26 01:14:04;;;;;;;51.83;25.10;;;12.50;59.80;;;;;;5052180;28;20061;-64
2021/03/26 01:16:34;;;;;;;44.90;23.50;;;;;;;;;;5067731;28;20064;-67
2021/03/26 01:19:02;;;;;;;51.25;24.48;;;;;;;;;;5052480;28;20095;-65
2021/03/26 01:21:31;;;;;;;47.75;25.17;;;12.40;60.50;;;;;;5050710;28;20049;-66
2021/03/26 01:23:59;;;;;;;46.25;24.50;;;;;;;;;;5051124;28;20132;-66
2021/03/26 01:26:27;;;;;;;51.25;24.60;;;12.60;60.00;;;;;;5051918;28;20052;-64
2021/03/26 01:29:18;;;;;;;49.30;23.80;;;;;;;;;;5029762;28;20085;-63
2021/03/26 01:31:56;;;;;;;48.00;25.02;;;;;;;;;;5030203;28;20135;-65
2021/03/26 01:34:25;;;;;;;53.05;24.42;;;;;;;;;;5013505;28;20065;-65
2021/03/26 01:37:02;;;;;;;42.50;24.83;;;;;;;;;;5030557;28;20555;-64
2021/03/26 01:39:30;;;;;;;48.47;25.58;;;;;;;;;;5014072;28;20049;-64
2021/03/26 01:41:58;;;;;;;48.25;25.58;;;;;;;;;;5029158;28;20168;-65
2021/03/26 01:44:27;;;;;;;48.70;25.75;;;12.70;59.60;;;;;;5013625;28;20554;-66
2021/03/26 01:47:03;;;;;;;48.42;25.05;;;;;;;;;;5030101;28;20503;-64
2021/03/26 01:49:30;;;;;;;53.10;26.15;;;;;;;;;;5013250;28;20073;-66
2021/03/26 01:52:03;;;;;;;50.47;25.77;;;;;;;;;;5013697;28;20049;-65
2021/03/26 01:54:31;;;;;;;56.53;25.60;;;;;;;;;;5013481;28;20092;-65
2021/03/26 01:56:58;;;;;;;51.78;26.88;;;;;;;;;;5012873;28;20050;-66
2021/03/26 01:59:40;;;;;;;49.30;25.77;;;;;;;;;;4996837;28;20064;-66
2021/03/26 02:02:14;;;;;;;51.40;25.35;;;12.20;61.20;;;;;;5013218;28;20073;-66
2021/03/26 02:05:02;;;;;;;52.72;26.38;;;;;;;;;;5029519;28;20048;-66
2021/03/26 02:07:50;;;;;;;55.90;26.38;;;;;;;;;;5050490;28;20150;-66
2021/03/26 02:10:23;;;;;;;54.28;25.17;;;12.20;60.80;;;;;;5051456;28;20155;-63
2021/03/26 02:13:22;;;;;;;52.63;26.15;;;12.30;60.60;;;;;;5049362;28;20045;-64
2021/03/26 02:15:51;;;;;;;48.88;26.90;;;12.40;60.00;;;;;;5043974;28;20052;-65
2021/03/26 02:18:33;;;;;;;54.60;27.00;;;12.30;60.30;;;;;;5044791;28;20053;-65
2021/03/26 02:21:16;;;;;;;54.45;27.05;;;12.30;60.60;;;;;;5050126;28;20503;-65
2021/03/26 02:23:52;;;;;;;60.45;28.05;;;12.30;60.30;;;;;;5037312;28;20118;-64
2021/03/26 02:26:30;;;;;;;49.45;26.55;;;12.40;60.20;;;;;;5051198;28;20049;-64
2021/03/26 02:29:01;;;;;;;51.75;26.15;;;12.50;60.40;;;;;;5037726;28;20033;-64
2021/03/26 02:32:32;;;;;;;53.67;26.40;;;12.30;60.70;;;;;;5039858;28;20041;-66
2021/03/26 02:35:24;;;;;;;52.35;28.13;;;;;;;;;;5014032;28;20068;-64
2021/03/26 02:38:34;;;;;;;53.28;27.25;;;12.20;60.40;;;;;;5012614;28;20057;-64
2021/03/26 02:41:09;;;;;;;44.92;23.95;;;;;;;;;;5012437;28;20092;-65
2021/03/26 02:43:41;;;;;;;58.67;28.45;;;12.20;60.50;;;;;;5012315;28;20053;-65
2021/03/26 02:46:43;;;;;;;50.70;27.60;;;12.20;60.60;;;;;;5028729;28;20606;-65
2021/03/26 02:49:19;;;;;;;59.28;28.88;;;12.20;60.50;;;;;;5028722;28;20526;-63
2021/03/26 02:52:09;;;;;;;57.42;29.08;;;12.20;60.80;;;;;;5028991;28;20413;-65
2021/03/26 02:54:42;;;;;;;53.42;27.23;;;12.10;61.00;;;;;;4993480;28;20057;-64
2021/03/26 02:57:25;;;;;;;54.60;28.23;;;12.10;60.90;;;;;;4977095;28;20568;-65
2021/03/26 03:00:45;;;;;;;57.33;27.73;;;12.10;60.80;;;;;;4978518;28;20421;-64
2021/03/26 03:03:21;;;;;;;51.92;28.30;;;12.10;61.30;;;;;;4993311;28;20052;-64
2021/03/26 03:06:08;;;;;;;57.22;29.10;;;12.00;61.80;;;;;;5002656;28;20061;-64
2021/03/26 03:09:13;;;;;;;56.58;28.15;;;11.80;62.20;;;;;;4973501;28;20046;-65
2021/03/26 03:12:00;;;;;;;53.38;28.30;;;11.90;62.00;;;;;;4973686;28;20457;-63
2021/03/26 03:14:38;;;;;;;57.67;28.77;;;12.00;61.60;;;;;;4973595;28;20439;-64
2021/03/26 03:17:28;;;;;;;58.70;29.77;;;12.20;60.90;;;;;;4973482;28;20055;-62
2021/03/26 03:20:00;;;;;;;51.28;27.50;;;;;;;;;;4973637;28;20055;-65
2021/03/26 03:22:36;;;;;;;57.47;30.40;;;12.20;60.90;;;;;;4973455;28;20562;-65
2021/03/26 03:25:13;;;;;;;53.22;28.95;;;12.10;61.00;;;;;;4973455;28;20159;-66
2021/03/26 03:27:47;;;;;;;56.85;28.10;;;12.20;60.80;;;;;;4973423;28;20093;-65
2021/03/26 03:30:45;;;;;;;58.15;28.67;;;12.00;61.10;;;;;;4972560;28;20097;-65
2021/03/26 03:33:35;;;;;;;56.28;29.63;;;12.00;61.00;;;;;;4969751;28;20043;-62
2021/03/26 03:36:07;;;;;;;55.03;27.15;;;12.00;61.10;;;;;;4973278;28;20059;-63
2021/03/26 03:38:50;;;;;;;57.08;28.20;;;12.10;60.80;;;;;;4972914;28;20497;-65
2021/03/26 03:41:32;;;;;;;53.13;27.95;;;12.00;60.60;;;;;;4973062;28;20047;-65
2021/03/26 03:44:28;;;;;;;54.83;27.30;;;12.10;60.50;;;;;;5029475;28;20439;-65
2021/03/26 03:47:28;;;;;;;56.53;29.48;;;12.20;60.50;;;;;;5015369;28;20049;-63
2021/03/26 03:50:18;;;;;;;56.78;28.27;;;12.10;60.60;;;;;;5031809;28;20411;-65
2021/03/26 03:52:56;;;;;;;53.97;28.48;;;12.00;61.00;;;;;;5031802;28;20119;-65
2021/03/26 03:55:25;;;;;;;54.92;28.75;;;;;;;;;;5031558;28;20049;-65
2021/03/26 03:58:23;;;;;;;52.55;28.48;;;12.10;60.90;;;;;;5015202;28;20512;-65
2021/03/26 04:01:01;;;;;;;52.88;27.33;;;12.10;60.80;;;;;;4903114;29;20138;-65
2021/03/26 04:03:48;;;;;;;55.83;27.13;;;12.20;60.50;;;;;;4918155;29;20122;-64
2021/03/26 04:06:30;;;;;;;56.35;28.15;;;12.20;60.50;;;;;;4921288;29;20054;-65
2021/03/26 04:09:07;;;;;;;53.65;27.73;;;12.20;60.60;;;;;;4937390;29;20039;-65
2021/03/26 04:11:53;;;;;;;53.67;28.05;;;12.20;60.80;;;;;;4953205;29;20063;-64
2021/03/26 04:14:39;;;;;;;53.17;27.35;;;12.10;61.40;;;;;;4936835;29;20110;-65
2021/03/26 04:17:28;;;;;;;57.25;28.60;;;12.00;61.60;;;;;;4937719;29;20082;-65
2021/03/26 04:20:16;;;;;;;53.58;26.67;;;11.80;62.30;;;;;;4918524;29;20051;-66
2021/03/26 04:22:50;;;;;;;61.45;28.50;;;12.00;62.20;;;;;;4918086;29;20052;-63
2021/03/26 04:25:33;;;;;;;54.22;26.98;;;11.90;61.80;;;;;;4956430;28;20062;-65
2021/03/26 04:28:26;;;;;;;54.75;26.20;;;12.00;62.20;;;;;;4971704;28;20046;-66
2021/03/26 04:31:25;;;;;;;57.97;27.83;;;12.20;61.70;;;;;;4964408;28;20059;-65
2021/03/26 04:34:04;;;;;;;51.47;25.85;;;;;;;;;;4972340;28;20540;-63
2021/03/26 04:36:48;;;;;;;54.55;27.60;;;12.20;61.50;;;;;;4972646;28;20050;-65
2021/03/26 04:39:35;;;;;;;59.90;27.23;;;12.30;61.20;;;;;;5053505;28;20065;-65
2021/03/26 04:42:12;;;;;;;55.67;28.03;;;12.10;61.60;;;;;;5051675;28;20099;-65
2021/03/26 04:44:50;;;;;;;49.00;26.38;;;12.10;61.90;;;;;;5051494;28;20052;-64
2021/03/26 04:47:37;;;;;;;54.38;26.10;;;12.20;61.60;;;;;;5038894;28;20037;-65
2021/03/26 04:50:34;;;;;;;55.60;25.67;;;12.50;60.80;;;;;;5052596;28;20045;-65
2021/03/26 04:53:21;;;;;;;57.95;26.75;;;12.50;60.70;;;;;;5052014;28;20045;-67
2021/03/26 04:55:56;;;;;;;55.00;26.45;;;12.50;60.20;;;;;;5051693;28;20051;-67
2021/03/26 04:58:48;;;;;;;52.08;26.33;;;12.70;60.00;;;;;;5034296;28;20052;-65
2021/03/26 05:01:34;;;;;;;57.55;26.38;;;;;;;;;;5052529;28;20049;-66
2021/03/26 05:04:28;;;;;;;53.05;27.23;;;12.70;60.10;;;;;;5051443;28;20059;-67
2021/03/26 05:07:00;;;;;;;48.15;24.92;;;12.50;60.20;;;;;;5050796;28;20095;-65
2021/03/26 05:09:32;;;;;;;51.08;26.73;;;12.50;60.40;;;;;;5034400;28;20404;-65
2021/03/26 05:12:19;;;;;;;51.42;26.13;;;12.60;60.10;;;;;;5029205;28;20049;-66
2021/03/26 05:15:09;;;;;;;51.75;26.85;;;12.60;60.00;;;;;;5018074;28;20053;-64
2021/03/26 05:17:46;;;;;;;53.60;26.23;;;12.70;60.00;;;;;;5052233;28;20076;-66
2021/03/26 05:20:24;;;;;;;51.23;25.50;;;12.60;60.20;;;;;;5052697;28;20461;-65
2021/03/26 05:23:20;;;;;;;51.35;26.00;;;12.80;59.70;;;;;;5051035;28;20056;-65
2021/03/26 05:26:06;;;;;;;53.90;26.42;;;;;;;;;;5051769;28;20056;-64
2021/03/26 05:28:57;;;;;;;54.78;26.35;;;;;;;;;;5034439;28;20048;-65
2021/03/26 05:31:55;;;;;;;47.45;25.58;;;12.90;58.90;;;;;;5034571;28;20056;-66
2021/03/26 05:35:03;;;;;;;46.90;23.27;;;12.70;59.20;;;;;;5028915;28;20066;-67
2021/03/26 05:37:57;;;;;;;54.90;25.40;;;12.70;59.60;;;;;;5050822;28;20053;-66
2021/03/26 05:40:51;;;;;;;52.53;24.92;;;12.60;59.50;;;;;;5039988;28;20541;-67
2021/03/26 05:44:17;;;;;;;46.00;24.55;;;12.70;59.20;;;;;;5027153;28;20056;-66
2021/03/26 05:47:03;;;;;;;53.38;26.88;;;12.80;58.80;;;;;;5015410;28;20092;-66
2021/03/26 05:49:43;;;;;;;51.28;25.75;;;;;;;;;;5013193;28;20097;-64
2021/03/26 05:52:10;;;;;;;47.70;25.73;;;;;;;;;;5015699;28;20150;-65
2021/03/26 05:55:06;;;;;;;54.47;26.45;;;12.70;59.10;;;;;;5013208;28;20071;-65
2021/03/26 05:57:41;;;;;;;49.85;25.08;;;12.80;58.90;;;;;;4980706;28;20041;-64
2021/03/26 06:00:34;;;;;;;52.67;26.10;;;12.80;58.70;;;;;;5023779;28;20060;-65
2021/03/26 06:03:56;;;;;;;49.70;24.67;;;12.80;58.80;;;;;;5029191;28;20049;-64
2021/03/26 06:07:10;;;;;;;51.58;23.83;;;12.80;58.80;;;;;;5017739;28;20061;-64
2021/03/26 06:10:26;;;;;;;51.40;26.23;;;12.60;58.80;;;;;;5039187;28;20562;-64
2021/03/26 06:13:50;;;;;;;48.67;24.48;;;12.60;59.20;;;;;;5038463;28;20191;-68
2021/03/26 06:16:51;;;;;;;54.88;27.38;;;12.70;58.80;;;;;;4998626;28;20116;-64
2021/03/26 06:19:52;;;;;;;56.17;28.15;;;12.50;59.20;;;;;;4938555;29;20430;-63
2021/03/26 06:22:59;;;;;;;51.97;26.95;;;12.60;59.30;;;;;;4565113;29;9999748;-65
2021/03/26 06:26:16;;;;;;;56.95;26.80;;;12.60;59.10;;;;;;4910101;29;20463;-65
2021/03/26 06:29:24;;;;;;;55.00;26.40;;;12.70;58.80;;;;;;4909676;29;20056;-65
2021/03/26 06:32:19;;;;;;;49.17;25.33;;;12.40;59.50;;;;;;4910115;29;20752;-65
2021/03/26 06:35:19;;;;;;;51.72;26.23;;;12.60;59.50;;;;;;4894305;29;20602;-65
2021/03/26 06:37:54;;;;;;;49.05;25.95;;;12.60;59.50;;;;;;4910505;29;20508;-67
2021/03/26 06:40:41;;;;;;;54.33;26.00;;;12.60;59.20;;;;;;4905524;29;20061;-66
2021/03/26 06:43:35;;;;;;;54.13;26.60;;;12.70;59.00;;;;;;4902133;29;20076;-65
2021/03/26 06:46:13;;;;;;;56.38;28.73;;;12.70;58.90;;;;;;4889542;29;20060;-67
2021/03/26 06:49:07;;;;;;;56.78;27.52;;;12.80;58.60;;;;;;4890703;29;20041;-67
2021/03/26 06:52:10;;;;;;;52.00;25.60;;;12.80;58.60;;;;;;4890892;29;20063;-66
2021/03/26 06:54:41;;;;;;;54.83;28.13;;;;;;;;;;4906312;29;20198;-67
2021/03/26 06:57:08;;;;;;;56.33;27.60;;;;;;;;;;4954777;28;20058;-65
2021/03/26 06:59:57;;;;;;;53.70;28.02;;;12.80;58.70;;;;;;5006689;28;20061;-68
2021/03/26 07:03:02;;;;;;;56.78;28.05;;;12.80;59.00;;;;;;5057702;28;20049;-65
2021/03/26 07:06:01;;;;;;;53.97;26.02;;;12.90;58.40;;;;;;5044895;28;20048;-65
2021/03/26 07:08:48;;;;;;;53.08;26.17;;;13.00;58.30;;;;;;5081039;28;20067;-65
2021/03/26 07:11:26;;;;;;;55.58;26.60;;;12.60;58.90;;;;;;5065826;28;20053;-65
2021/03/26 07:14:30;;;;;;;59.65;26.45;;;12.60;59.70;;;;;;5084538;28;20147;-65
2021/03/26 07:17:24;;;;;;;54.60;27.38;;;12.60;59.40;;;;;;5078092;28;20048;-67
2021/03/26 07:20:17;;;;;;;57.20;25.67;;;12.70;59.00;;;;;;5080095;28;20032;-66
2021/03/26 07:23:02;;;;;;;51.60;24.95;;;12.70;59.10;;;;;;5072628;28;20057;-66
2021/03/26 07:25:56;;;;;;;49.47;25.08;;;12.80;59.10;;;;;;5059022;28;20120;-68
2021/03/26 07:28:42;;;;;;;50.70;24.42;;;12.70;59.30;;;;;;5068589;28;20036;-66
2021/03/26 07:31:44;;;;;;;54.05;25.52;;;12.80;59.10;;;;;;5046281;28;20045;-64
2021/03/26 07:34:37;;;;;;;48.28;25.48;;;12.90;58.90;;;;;;5068143;28;20101;-66
2021/03/26 07:37:26;;;;;;;47.33;24.60;;;13.10;58.20;;;;;;5082615;28;20509;-68
2021/03/26 07:40:02;;;;;;;50.45;27.15;;;13.30;57.90;;;;;;5084461;28;20040;-66
2021/03/26 07:42:48;;;;;;;;;;;13.10;58.30;;;;;;5062179;28;20085;-69
2021/03/26 07:45:23;;;;;;;51.33;26.50;;;13.70;56.70;;;;;;5052872;28;19939;-65
2021/03/26 07:48:22;;;;;;;50.13;23.83;;;13.70;56.40;;;;;;5091096;28;20032;-68
2021/03/26 07:51:10;;;;;;;45.22;24.33;;;13.90;56.10;;;;;;5087831;28;20063;-65
2021/03/26 07:54:03;;;;;;;51.05;23.98;;;14.10;55.80;;;;;;5088698;28;20055;-66
2021/03/26 07:56:50;;;;;;;45.40;23.38;;;14.20;55.00;;;;;;5082384;28;20048;-66
2021/03/26 07:59:36;;;;;;;46.45;20.92;;;14.00;54.90;;;;;;5087136;28;20048;-65
2021/03/26 08:02:44;;;;;;;44.47;22.95;;;14.30;55.40;;;;;;5088699;28;20071;-67
2021/03/26 08:05:37;;;;;;;42.83;22.90;;;14.10;55.20;;;;;;5083754;28;20036;-68
2021/03/26 08:08:34;;;;;;;43.55;21.08;;;14.20;55.60;;;;;;5064922;28;20082;-67
2021/03/26 08:11:22;;;;;;;40.88;22.00;;;14.10;55.80;;;;;;5077331;28;20430;-65
2021/03/26 08:14:25;;;;;;;42.78;21.15;;;14.20;54.60;;;;;;5075323;28;20059;-66
2021/03/26 08:17:29;;;;;;;37.53;20.08;;;14.00;55.00;;;;;;5075433;28;20036;-67
2021/03/26 08:20:16;;;;;;;41.72;20.67;;;14.00;55.60;;;;;;5063329;28;20040;-66
2021/03/26 08:22:55;;;;;;;38.70;20.30;;;13.90;55.50;;;;;;5057920;28;20049;-66
2021/03/26 08:26:06;;;;;;;42.22;21.20;;;14.40;54.90;;;;;;5042313;28;20494;-68
2021/03/26 08:28:44;;;;;;;40.72;21.55;;;14.30;54.20;;;;;;4976786;28;20065;-67
2021/03/26 08:31:30;;;;;;;42.35;20.63;;;14.30;54.30;;;;;;4990580;28;20082;-68
2021/03/26 08:34:23;;;;;;;35.40;16.70;;;14.60;53.40;;;;;;4963020;28;20054;-67
2021/03/26 08:37:01;;;;;;;37.30;19.27;;;14.60;53.60;;;;;;4990186;28;20493;-64
2021/03/26 08:39:44;;;;;;;37.20;18.75;;;14.50;53.40;;;;;;4991255;28;20046;-68
2021/03/26 08:42:11;;;;;;;35.95;17.52;;;;;;;;;;4957803;28;20043;-65
2021/03/26 08:44:39;;;;;;;32.17;17.65;;;;;;;;;;4990507;28;20343;-65
2021/03/26 08:47:19;;;;;;;37.65;18.33;;;14.80;52.30;;;;;;4990661;28;20046;-67
2021/03/26 08:49:53;;;;;;;37.25;16.45;;;14.70;51.70;;;;;;4989463;28;20113;-65
2021/03/26 08:52:47;;;;;;;27.75;15.25;;;15.00;51.30;;;;;;4990460;28;20046;-68
2021/03/26 08:56:04;;;;;;;33.53;18.13;;;15.00;50.90;;;;;;4970484;28;20058;-67
2021/03/26 08:58:58;;;;;;;29.45;14.55;;;15.20;50.50;;;;;;4970033;28;20038;-69
2021/03/26 09:01:31;;;;;;;31.90;14.20;;;15.30;49.20;;;;;;4954992;28;20095;-66
2021/03/26 09:04:28;;;;;;;30.00;14.45;;;15.20;49.60;;;;;;5006687;28;20144;-66
2021/03/26 09:07:16;;;;;;;27.95;15.13;;;15.30;50.30;;;;;;5009442;28;20100;-68
2021/03/26 09:10:17;;;;;;;27.00;13.80;;;15.30;49.60;;;;;;4982160;28;20042;-68
2021/03/26 09:13:08;;;;;;;26.38;12.57;;;15.50;49.00;;;;;;5008845;28;20068;-68
2021/03/26 09:16:01;;;;;;;22.42;12.75;;;15.60;48.90;;;;;;4993008;28;20435;-63
2021/03/26 09:18:29;;;;;;;28.42;13.95;;;;;;;;;;5006710;28;20053;-66
2021/03/26 09:21:19;;;;;;;26.77;13.02;;;16.00;47.70;;;;;;5009155;28;20148;-66
2021/03/26 09:24:18;;;;;;;20.80;10.60;;;16.00;46.90;;;;;;4998284;28;20108;-67
2021/03/26 09:26:51;;;;;;;20.98;11.30;;;15.90;47.60;;;;;;5008837;28;20141;-64
2021/03/26 09:29:23;;;;;;;22.92;10.10;;;16.10;46.90;;;;;;4992739;28;20041;-65
2021/03/26 09:32:13;;;;;;;24.70;11.80;;;16.00;47.10;;;;;;5029270;28;20051;-67
2021/03/26 09:34:45;;;;;;;20.92;10.57;;;15.80;47.90;;;;;;5070635;28;20040;-67
2021/03/26 09:37:12;;;;;;;25.88;12.00;;;;;;;;;;5071209;28;20059;-65
2021/03/26 09:39:43;;;;;;;22.98;11.85;;;16.00;48.00;;;;;;5070846;28;20048;-66
2021/03/26 09:42:33;;;;;;;23.83;10.43;;;16.10;47.00;;;;;;5057290;28;20417;-67
2021/03/26 09:45:16;;;;;;;21.83;11.85;;;16.30;47.00;;;;;;4989281;28;20073;-65
2021/03/26 09:48:01;;;;;;;23.15;10.27;;;16.50;46.10;;;;;;4972881;28;20074;-65
2021/03/26 09:50:33;;;;;;;22.23;9.80;;;16.50;45.60;;;;;;4988951;28;20548;-66
2021/03/26 09:53:09;;;;;;;18.52;9.43;;;16.40;46.00;;;;;;4989502;28;20456;-65
2021/03/26 09:55:40;;;;;;;19.10;9.32;;;16.80;45.20;;;;;;4989009;28;20093;-66
2021/03/26 09:58:35;;;;;;;17.60;8.18;;;16.80;44.70;;;;;;4989467;28;20058;-66
2021/03/26 10:01:17;;;;;;;17.38;8.32;;;16.80;44.10;;;;;;4989204;28;20501;-67
2021/03/26 10:04:06;;;;;;;16.15;7.20;;;16.60;44.80;;;;;;4988663;28;20050;-66
2021/03/26 10:07:30;;;;;;;19.92;8.50;;;16.60;45.00;;;;;;4972862;28;20585;-66
2021/03/26 10:12:56;;;;;;;24.08;7.80;;;;;;;;;;4950517;28;20036;-67
2021/03/26 10:15:43;;;;;;;16.58;7.03;;;16.50;44.70;;;;;;4934730;29;20102;-65
2021/03/26 10:18:21;;;;;;;13.95;6.10;;;16.30;44.40;;;;;;4949584;28;20055;-68
2021/03/26 10:20:54;;;;;;;14.75;6.70;;;16.20;44.90;;;;;;4949853;28;20047;-66
2021/03/26 10:23:26;;;;;;;13.63;7.22;;;16.40;44.40;;;;;;4987868;28;20074;-64
2021/03/26 10:25:55;;;;;;;16.73;7.50;;;16.50;44.30;;;;;;4988112;28;20042;-68
2021/03/26 10:28:49;;;;;;;18.30;6.93;;;16.50;44.30;;;;;;4988169;28;20449;-68
2021/03/26 10:31:25;;;;;;;15.77;7.10;;;16.60;44.60;;;;;;4987572;28;20061;-65
2021/03/26 10:33:55;;;;;;;15.15;6.60;;;16.50;44.10;;;;;;4988346;28;20042;-65
2021/03/26 10:36:41;;;;;;;15.38;6.60;;;16.80;44.00;;;;;;4988518;28;20050;-66
2021/03/26 10:39:31;;;;;;;14.98;5.47;;;16.80;43.00;;;;;;4988898;28;20050;-67
2021/03/26 10:42:06;;;;;;;14.95;6.20;;;16.90;43.00;;;;;;4988246;28;20101;-67
2021/03/26 10:45:03;;;;;;;16.05;7.00;;;16.90;42.20;;;;;;4988644;28;20436;-68
2021/03/26 10:47:53;;;;;;;15.73;6.28;;;16.60;42.80;;;;;;5032584;28;20053;-65
2021/03/26 10:50:44;;;;;;;15.20;5.63;;;16.90;42.30;;;;;;5050208;28;20043;-67
2021/03/26 10:53:18;;;;;;;9.25;4.32;;;17.20;41.20;;;;;;5049994;28;20045;-67
2021/03/26 10:56:19;;;;;;;14.05;5.38;;;17.10;41.10;;;;;;5028825;28;20046;-66
2021/03/26 10:58:54;;;;;;;11.75;4.68;;;16.90;40.50;;;;;;5046493;28;20049;-69
2021/03/26 11:01:23;;;;;;;17.17;5.22;;;16.60;41.50;;;;;;5049627;28;20044;-67
2021/03/26 11:04:18;;;;;;;14.07;4.40;;;17.00;39.90;;;;;;5049644;28;20045;-68
2021/03/26 11:06:50;;;;;;;13.25;4.10;;;16.90;39.90;;;;;;5052995;28;20056;-65
2021/03/26 11:09:50;;;;;;;13.82;5.32;;;17.10;40.30;;;;;;5049478;28;20064;-67
2021/03/26 11:12:26;;;;;;;15.20;5.18;;;17.30;39.20;;;;;;5069730;28;20060;-66
2021/03/26 11:15:08;;;;;;;20.52;3.88;;;17.20;38.70;;;;;;5072418;28;20044;-67
2021/03/26 11:18:15;;;;;;;10.70;3.45;;;17.30;37.90;;;;;;5074709;28;20028;-66
2021/03/26 11:20:48;;;;;;;12.52;4.30;;;17.30;38.50;;;;;;5045286;28;20075;-66
2021/03/26 11:23:16;;;;;;;12.90;3.80;;;;;;;;;;5075097;28;20483;-67
2021/03/26 11:25:51;;;;;;;15.20;4.45;;;17.20;39.00;;;;;;5073768;28;20040;-65
2021/03/26 11:28:29;;;;;;;13.90;4.75;;;17.20;38.20;;;;;;5072744;28;20036;-65
2021/03/26 11:31:08;;;;;;;9.23;3.83;;;17.00;38.60;;;;;;5055778;28;20392;-65
2021/03/26 11:33:57;;;;;;;13.93;4.32;;;17.00;38.80;;;;;;5073098;28;20044;-65
2021/03/26 11:36:34;;;;;;;8.13;3.60;;;16.90;38.50;;;;;;5073638;28;20047;-64
2021/03/26 11:39:06;;;;;;;8.38;3.58;;;17.00;38.80;;;;;;5073453;28;20045;-64
2021/03/26 11:41:39;;;;;;;8.35;3.42;;;17.00;39.20;;;;;;5072930;28;20110;-65
2021/03/26 11:44:11;;;;;;;14.82;4.63;;;17.30;38.70;;;;;;5072545;28;20059;-66
2021/03/26 11:46:42;;;;;;;12.85;4.57;;;17.60;38.10;;;;;;5073261;28;20082;-64
2021/03/26 11:49:28;;;;;;;9.68;4.40;;;17.90;37.70;;;;;;5073294;28;20032;-65
2021/03/26 11:52:07;;;;;;;10.17;3.77;;;18.00;37.30;;;;;;5054825;28;20096;-67
2021/03/26 11:54:44;;;;;;;10.02;4.32;;;18.00;37.60;;;;;;5071740;28;20062;-67
2021/03/26 11:57:38;;;;;;;14.93;5.15;;;18.20;37.20;;;;;;5073089;28;20079;-65
2021/03/26 12:00:31;;;;;;;13.70;5.15;;;18.40;37.40;;;;;;5071917;28;20045;-66
2021/03/26 12:03:04;;;;;;;11.25;4.30;;;18.80;35.60;;;;;;5061028;28;20052;-64
2021/03/26 12:06:06;;;;;;;14.13;4.47;;;18.80;36.20;;;;;;4359991;28;10000707;-64
2021/03/26 12:09:13;;;;;;;14.35;4.57;;;18.60;37.10;;;;;;5070429;28;20469;-63
2021/03/26 12:12:10;;;;;;;11.63;5.18;;;18.60;36.30;;;;;;5008160;28;20069;-65
2021/03/26 12:14:46;;;;;;;12.63;4.82;;;18.30;35.70;;;;;;5008419;28;20050;-65
2021/03/26 12:17:21;;;;;;;10.48;4.43;;;18.40;36.00;;;;;;4995442;28;20061;-65
2021/03/26 12:19:58;;;;;;;11.27;5.25;;;18.20;35.90;;;;;;5008428;28;20144;-64
2021/03/26 12:22:35;;;;;;;10.15;4.53;;;18.00;37.10;;;;;;5007631;28;20081;-65
2021/03/26 12:25:34;;;;;;;12.95;4.53;;;18.00;37.30;;;;;;5009671;28;20050;-63
2021/03/26 12:28:30;;;;;;;11.30;4.47;;;18.00;37.20;;;;;;4971108;28;20067;-65
2021/03/26 12:31:09;;;;;;;13.02;4.72;;;18.00;37.20;;;;;;4952259;29;20508;-65
2021/03/26 12:34:01;;;;;;;11.68;4.82;;;18.10;37.90;;;;;;4936214;29;20062;-64
2021/03/26 12:36:40;;;;;;;20.77;5.43;;;18.50;35.70;;;;;;4951703;29;20070;-64
2021/03/26 12:39:19;;;;;;;9.57;4.60;;;18.30;35.80;;;;;;4952071;29;20051;-64
2021/03/26 12:41:51;;;;;;;12.40;4.78;;;18.20;36.30;;;;;;4951183;29;20067;-65
2021/03/26 12:44:29;;;;;;;8.68;4.32;;;18.20;36.60;;;;;;4949819;29;20070;-64
2021/03/26 12:46:58;;;;;;;32.33;5.15;;;17.90;38.10;;;;;;4951345;29;20549;-65
2021/03/26 12:49:57;;;;;;;11.23;4.85;;;18.20;36.80;;;;;;4983220;28;20074;-65
2021/03/26 12:52:35;;;;;;;11.00;4.50;;;18.20;37.60;;;;;;4947031;29;20091;-65
2021/03/26 12:55:16;;;;;;;18.58;4.90;;;18.20;36.60;;;;;;4951178;29;20094;-65
2021/03/26 12:58:12;;;;;;;13.10;4.65;;;18.20;37.00;;;;;;4950718;29;20043;-63
2021/03/26 13:00:45;;;;;;;12.75;4.78;;;18.50;36.00;;;;;;4932105;29;20160;-65
2021/03/26 13:03:36;;;;;;;14.05;5.07;;;18.60;36.90;;;;;;4900591;29;20057;-65
2021/03/26 13:06:08;;;;;;;14.95;4.15;;;18.70;35.40;;;;;;4894143;29;20053;-65
2021/03/26 13:08:41;;;;;;;10.93;3.92;;;18.70;35.80;;;;;;4937613;28;20051;-65
2021/03/26 13:11:24;;;;;;;11.85;3.85;;;19.00;35.70;;;;;;4957701;28;20106;-66
2021/03/26 13:14:00;;;;;;;8.98;3.47;;;18.00;36.00;;;;;;4955264;28;20062;-66
2021/03/26 13:16:38;;;;;;;12.40;3.58;;;18.00;36.60;;;;;;4957213;28;20054;-65
2021/03/26 13:19:33;;;;;;;9.55;3.25;;;18.00;37.40;;;;;;4957705;28;20070;-66
2021/03/26 13:22:19;;;;;;;6.88;3.10;;;17.90;36.20;;;;;;4955258;28;20122;-64
2021/03/26 13:24:55;;;;;;;14.25;3.88;;;18.00;36.20;;;;;;4950678;28;20115;-64
2021/03/26 13:27:35;;;;;;;12.30;3.53;;;18.00;35.50;;;;;;4951679;28;20051;-62
2021/03/26 13:30:15;;;;;;;5.55;2.95;;;18.00;35.20;;;;;;4986832;28;20135;-64
2021/03/26 13:33:13;;;;;;;10.77;3.50;;;18.00;34.90;;;;;;5009533;28;20544;-64
2021/03/26 13:35:53;;;;;;;8.32;3.33;;;17.90;34.90;;;;;;4993367;28;20056;-64
2021/03/26 13:38:45;;;;;;;6.20;2.75;;;17.90;35.20;;;;;;5065024;28;20045;-63
2021/03/26 13:41:36;;;;;;;11.30;3.30;;;18.00;35.80;;;;;;5081531;28;20123;-63
2021/03/26 13:44:18;;;;;;;9.60;3.20;;;18.10;36.00;;;;;;5087510;28;20032;-65
2021/03/26 13:46:48;;;;;;;8.40;3.20;;;18.20;35.60;;;;;;5084534;28;20116;-64
2021/03/26 13:49:24;;;;;;;11.05;3.55;;;17.90;35.70;;;;;;5088017;28;20048;-65
2021/03/26 13:51:58;;;;;;;8.10;3.05;;;17.90;35.40;;;;;;5083536;28;20044;-66
2021/03/26 13:54:39;;;;;;;6.85;2.92;;;17.90;36.00;;;;;;5086746;28;20051;-65
2021/03/26 13:57:26;;;;;;;9.00;3.20;;;18.50;33.90;;;;;;5084592;28;20051;-67
2021/03/26 14:00:08;;;;;;;7.75;3.50;;;18.60;35.00;;;;;;5085938;28;20143;-67
2021/03/26 14:02:42;;;;;;;8.57;2.97;;;18.70;33.90;;;;;;5042201;28;20053;-65
2021/03/26 14:05:30;;;;;;;12.25;3.50;;;18.90;33.30;;;;;;5078358;28;20028;-65
2021/03/26 14:08:32;;;;;;;12.63;3.65;;;18.80;33.40;;;;;;5045434;28;20571;-65
2021/03/26 14:11:10;;;;;;;8.10;2.83;;;18.70;33.80;;;;;;5081057;28;20056;-64
2021/03/26 14:13:43;;;;;;;8.95;3.30;;;18.70;34.00;;;;;;5058341;28;20493;-65
2021/03/26 14:16:17;;;;;;;7.10;3.10;;;18.60;34.60;;;;;;5041820;28;20084;-64